sensor_id;sensor_type;location;lat;lon;timestamp;temperature;humidity
27858;DHT22;16852;51.446;6.528;2023-07-30T00:01:34;18.40;99.90
27858;DHT22;16852;51.446;6.528;2023-07-30T00:03:34;18.40;99.90
27858;DHT22;16852;51.446;6.528;2023-07-30T00:05:35;18.40;99.90
27858;DHT22;16852;51.446;6.528;2023-07-30T00:07:36;18.40;99.90
27858;DHT22;16852;51.446;6.528;2023-07-30T00:09:37;18.40;99.90
27858;DHT22;16852;51.446;6.528;2023-07-30T00:11:38;18.40;99.90
27858;DHT22;16852;51.446;6.528;2023-07-30T00:13:38;18.40;99.90
27858;DHT22;16852;51.446;6.528;2023-07-30T00:15:39;18.40;99.90
27858;DHT22;16852;51.446;6.528;2023-07-30T00:17:39;18.40;99.90
27858;DHT22;16852;51.446;6.528;2023-07-30T00:19:40;18.50;99.90
27858;DHT22;16852;51.446;6.528;2023-07-30T00:21:40;18.50;99.90
27858;DHT22;16852;51.446;6.528;2023-07-30T00:23:44;18.50;99.90
27858;DHT22;16852;51.446;6.528;2023-07-30T00:25:44;18.50;99.90
27858;DHT22;16852;51.446;6.528;2023-07-30T00:27:45;18.50;99.90
27858;DHT22;16852;51.446;6.528;2023-07-30T00:29:45;18.50;99.90
27858;DHT22;16852;51.446;6.528;2023-07-30T00:31:46;18.50;99.90
27858;DHT22;16852;51.446;6.528;2023-07-30T00:33:47;18.50;99.90
27858;DHT22;16852;51.446;6.528;2023-07-30T00:35:51;18.40;99.90
27858;DHT22;16852;51.446;6.528;2023-07-30T00:37:51;18.40;99.90
27858;DHT22;16852;51.446;6.528;2023-07-30T00:39:52;18.40;99.90
27858;DHT22;16852;51.446;6.528;2023-07-30T00:41:52;18.30;99.90
27858;DHT22;16852;51.446;6.528;2023-07-30T00:43:53;18.30;99.90
27858;DHT22;16852;51.446;6.528;2023-07-30T00:45:54;18.20;99.90
27858;DHT22;16852;51.446;6.528;2023-07-30T00:47:54;18.20;99.90
27858;DHT22;16852;51.446;6.528;2023-07-30T00:49:55;18.20;99.90
27858;DHT22;16852;51.446;6.528;2023-07-30T00:51:56;18.10;99.90
27858;DHT22;16852;51.446;6.528;2023-07-30T07:45:29;18.20;99.90
27858;DHT22;16852;51.446;6.528;2023-07-30T07:47:29;18.30;99.90
27858;DHT22;16852;51.446;6.528;2023-07-30T07:49:30;18.30;99.90
27858;DHT22;16852;51.446;6.528;2023-07-30T07:51:30;18.30;99.90
27858;DHT22;16852;51.446;6.528;2023-07-30T07:53:31;18.30;99.90
27858;DHT22;16852;51.446;6.528;2023-07-30T07:55:32;18.30;99.90
27858;DHT22;16852;51.446;6.528;2023-07-30T07:57:33;18.30;99.90
27858;DHT22;16852;51.446;6.528;2023-07-30T07:59:34;18.30;99.90
27858;DHT22;16852;51.446;6.528;2023-07-30T08:01:34;18.30;99.90
27858;DHT22;16852;51.446;6.528;2023-07-30T08:03:35;18.40;99.90
27858;DHT22;16852;51.446;6.528;2023-07-30T08:05:35;18.40;99.90
27858;DHT22;16852;51.446;6.528;2023-07-30T08:07:36;18.30;99.90
27858;DHT22;16852;51.446;6.528;2023-07-30T08:09:37;18.30;99.90
27858;DHT22;16852;51.446;6.528;2023-07-30T08:11:37;18.30;99.90
27858;DHT22;16852;51.446;6.528;2023-07-30T08:13:38;18.30;99.90
27858;DHT22;16852;51.446;6.528;2023-07-30T08:15:39;18.30;99.90
27858;DHT22;16852;51.446;6.528;2023-07-30T08:17:40;18.30;99.90
27858;DHT22;16852;51.446;6.528;2023-07-30T08:19:40;18.40;99.90
27858;DHT22;16852;51.446;6.528;2023-07-30T08:21:41;18.40;99.90
27858;DHT22;16852;51.446;6.528;2023-07-30T08:23:42;18.40;99.90
27858;DHT22;16852;51.446;6.528;2023-07-30T08:25:42;18.40;99.90
27858;DHT22;16852;51.446;6.528;2023-07-30T08:27:43;18.40;99.90
27858;DHT22;16852;51.446;6.528;2023-07-30T08:29:43;18.50;99.90
27858;DHT22;16852;51.446;6.528;2023-07-30T08:31:45;18.40;99.90
27858;DHT22;16852;51.446;6.528;2023-07-30T08:33:46;18.40;99.90
27858;DHT22;16852;51.446;6.528;2023-07-30T08:35:46;18.50;99.90
27858;DHT22;16852;51.446;6.528;2023-07-30T08:37:47;18.50;99.90
27858;DHT22;16852;51.446;6.528;2023-07-30T08:39:48;18.50;99.90
27858;DHT22;16852;51.446;6.528;2023-07-30T08:41:48;18.50;99.90
27858;DHT22;16852;51.446;6.528;2023-07-30T08:43:49;18.50;99.90
27858;DHT22;16852;51.446;6.528;2023-07-30T08:45:50;18.50;99.90
27858;DHT22;16852;51.446;6.528;2023-07-30T08:47:50;18.50;99.90
27858;DHT22;16852;51.446;6.528;2023-07-30T08:49:51;18.50;99.90
27858;DHT22;16852;51.446;6.528;2023-07-30T08:51:52;18.60;99.90
27858;DHT22;16852;51.446;6.528;2023-07-30T08:53:57;18.60;99.90
27858;DHT22;16852;51.446;6.528;2023-07-30T08:55:59;18.60;99.90
27858;DHT22;16852;51.446;6.528;2023-07-30T08:58:04;18.60;99.90
27858;DHT22;16852;51.446;6.528;2023-07-30T09:00:06;18.70;99.90
27858;DHT22;16852;51.446;6.528;2023-07-30T09:02:17;18.70;99.90
27858;DHT22;16852;51.446;6.528;2023-07-30T09:04:18;18.70;99.90
27858;DHT22;16852;51.446;6.528;2023-07-30T09:06:19;18.80;99.90
27858;DHT22;16852;51.446;6.528;2023-07-30T09:08:19;18.80;99.90
27858;DHT22;16852;51.446;6.528;2023-07-30T09:10:21;18.90;99.90
27858;DHT22;16852;51.446;6.528;2023-07-30T09:12:34;19.00;99.90
27858;DHT22;16852;51.446;6.528;2023-07-30T09:14:35;19.10;99.90
27858;DHT22;16852;51.446;6.528;2023-07-30T09:16:35;19.20;99.90
27858;DHT22;16852;51.446;6.528;2023-07-30T09:18:43;19.30;99.90
27858;DHT22;16852;51.446;6.528;2023-07-30T09:20:44;19.50;99.90
27858;DHT22;16852;51.446;6.528;2023-07-30T09:22:45;19.60;99.90
27858;DHT22;16852;51.446;6.528;2023-07-30T09:24:49;19.70;99.90
27858;DHT22;16852;51.446;6.528;2023-07-30T09:26:49;19.70;99.90
27858;DHT22;16852;51.446;6.528;2023-07-30T09:28:50;19.70;99.90
27858;DHT22;16852;51.446;6.528;2023-07-30T09:30:50;19.80;99.90
27858;DHT22;16852;51.446;6.528;2023-07-30T09:32:55;19.80;99.90
27858;DHT22;16852;51.446;6.528;2023-07-30T09:35:15;19.90;99.90
27858;DHT22;16852;51.446;6.528;2023-07-30T09:37:15;20.00;99.90
27858;DHT22;16852;51.446;6.528;2023-07-30T09:39:24;20.00;99.90
27858;DHT22;16852;51.446;6.528;2023-07-30T09:41:25;20.10;99.90
27858;DHT22;16852;51.446;6.528;2023-07-30T09:43:34;20.00;99.90
27858;DHT22;16852;51.446;6.528;2023-07-30T09:45:36;20.10;99.90
27858;DHT22;16852;51.446;6.528;2023-07-30T09:47:37;20.20;99.90
27858;DHT22;16852;51.446;6.528;2023-07-30T09:49:38;20.30;99.90
27858;DHT22;16852;51.446;6.528;2023-07-30T09:51:39;20.40;99.90
27858;DHT22;16852;51.446;6.528;2023-07-30T09:53:41;20.50;99.90
27858;DHT22;16852;51.446;6.528;2023-07-30T09:55:42;20.50;99.90
27858;DHT22;16852;51.446;6.528;2023-07-30T09:57:43;20.50;99.90
27858;DHT22;16852;51.446;6.528;2023-07-30T09:59:44;20.50;99.90
27858;DHT22;16852;51.446;6.528;2023-07-30T10:01:46;20.50;99.90
27858;DHT22;16852;51.446;6.528;2023-07-30T10:03:49;20.50;99.90
27858;DHT22;16852;51.446;6.528;2023-07-30T10:05:50;20.50;99.90
27858;DHT22;16852;51.446;6.528;2023-07-30T10:07:58;20.60;99.90
27858;DHT22;16852;51.446;6.528;2023-07-30T10:10:01;20.60;99.90
27858;DHT22;16852;51.446;6.528;2023-07-30T10:12:03;20.60;99.90
27858;DHT22;16852;51.446;6.528;2023-07-30T10:14:05;20.60;99.90
27858;DHT22;16852;51.446;6.528;2023-07-30T10:16:10;20.60;99.90
27858;DHT22;16852;51.446;6.528;2023-07-30T10:18:14;20.70;99.90
27858;DHT22;16852;51.446;6.528;2023-07-30T10:20:41;20.80;99.90
27858;DHT22;16852;51.446;6.528;2023-07-30T10:22:46;20.80;99.90
27858;DHT22;16852;51.446;6.528;2023-07-30T10:24:57;20.80;99.90
27858;DHT22;16852;51.446;6.528;2023-07-30T10:27:05;20.80;99.90
27858;DHT22;16852;51.446;6.528;2023-07-30T10:29:19;20.90;99.90
27858;DHT22;16852;51.446;6.528;2023-07-30T10:31:59;21.00;99.90
27858;DHT22;16852;51.446;6.528;2023-07-30T10:34:06;21.00;99.90
27858;DHT22;16852;51.446;6.528;2023-07-30T10:36:07;21.10;99.90
27858;DHT22;16852;51.446;6.528;2023-07-30T10:38:22;21.10;99.90
27858;DHT22;16852;51.446;6.528;2023-07-30T10:40:29;21.10;99.90
27858;DHT22;16852;51.446;6.528;2023-07-30T10:42:33;21.20;99.90
27858;DHT22;16852;51.446;6.528;2023-07-30T10:44:35;21.10;99.90
27858;DHT22;16852;51.446;6.528;2023-07-30T10:46:35;21.00;99.90
27858;DHT22;16852;51.446;6.528;2023-07-30T10:48:38;21.10;99.90
27858;DHT22;16852;51.446;6.528;2023-07-30T10:50:39;21.00;99.90
27858;DHT22;16852;51.446;6.528;2023-07-30T10:52:40;21.00;99.90
27858;DHT22;16852;51.446;6.528;2023-07-30T10:54:40;21.00;99.90
27858;DHT22;16852;51.446;6.528;2023-07-30T10:56:41;21.00;99.90
27858;DHT22;16852;51.446;6.528;2023-07-30T10:58:43;21.00;99.90
27858;DHT22;16852;51.446;6.528;2023-07-30T11:00:44;21.00;99.90
27858;DHT22;16852;51.446;6.528;2023-07-30T11:02:53;21.00;99.90
27858;DHT22;16852;51.446;6.528;2023-07-30T11:04:54;20.90;99.90
27858;DHT22;16852;51.446;6.528;2023-07-30T11:06:54;21.00;99.90
27858;DHT22;16852;51.446;6.528;2023-07-30T11:08:55;21.00;99.90
27858;DHT22;16852;51.446;6.528;2023-07-30T11:10:55;21.00;99.90
27858;DHT22;16852;51.446;6.528;2023-07-30T11:12:57;20.90;99.90
27858;DHT22;16852;51.446;6.528;2023-07-30T11:15:02;20.90;99.90
27858;DHT22;16852;51.446;6.528;2023-07-30T11:17:03;20.90;99.90
27858;DHT22;16852;51.446;6.528;2023-07-30T11:19:08;20.80;99.90
27858;DHT22;16852;51.446;6.528;2023-07-30T11:21:13;20.90;99.90
27858;DHT22;16852;51.446;6.528;2023-07-30T11:23:23;20.90;99.90
27858;DHT22;16852;51.446;6.528;2023-07-30T11:25:24;20.80;99.90
27858;DHT22;16852;51.446;6.528;2023-07-30T11:27:24;20.90;99.90
27858;DHT22;16852;51.446;6.528;2023-07-30T11:29:25;21.00;99.90
27858;DHT22;16852;51.446;6.528;2023-07-30T11:31:26;21.00;99.90
27858;DHT22;16852;51.446;6.528;2023-07-30T11:33:28;21.10;99.90
27858;DHT22;16852;51.446;6.528;2023-07-30T11:35:29;21.20;99.90
27858;DHT22;16852;51.446;6.528;2023-07-30T11:37:30;21.20;99.90
27858;DHT22;16852;51.446;6.528;2023-07-30T11:39:30;21.30;99.90
27858;DHT22;16852;51.446;6.528;2023-07-30T11:41:31;21.30;99.90
27858;DHT22;16852;51.446;6.528;2023-07-30T11:43:32;21.40;99.90
27858;DHT22;16852;51.446;6.528;2023-07-30T11:45:33;21.60;99.90
27858;DHT22;16852;51.446;6.528;2023-07-30T11:47:34;21.50;99.90
27858;DHT22;16852;51.446;6.528;2023-07-30T11:49:34;21.60;99.90
27858;DHT22;16852;51.446;6.528;2023-07-30T11:51:35;21.60;99.90
27858;DHT22;16852;51.446;6.528;2023-07-30T11:53:56;21.70;99.90
27858;DHT22;16852;51.446;6.528;2023-07-30T11:55:57;21.60;99.90
27858;DHT22;16852;51.446;6.528;2023-07-30T11:57:58;21.70;99.90
27858;DHT22;16852;51.446;6.528;2023-07-30T11:59:59;21.70;99.90
27858;DHT22;16852;51.446;6.528;2023-07-30T12:02:00;21.80;99.90
27858;DHT22;16852;51.446;6.528;2023-07-30T12:04:03;21.90;99.90
27858;DHT22;16852;51.446;6.528;2023-07-30T12:06:05;22.00;99.90
27858;DHT22;16852;51.446;6.528;2023-07-30T12:08:13;22.00;99.90
27858;DHT22;16852;51.446;6.528;2023-07-30T12:10:16;22.00;99.90
27858;DHT22;16852;51.446;6.528;2023-07-30T12:12:16;22.10;99.90
27858;DHT22;16852;51.446;6.528;2023-07-30T12:14:18;22.10;99.90
27858;DHT22;16852;51.446;6.528;2023-07-30T12:16:19;22.20;99.90
27858;DHT22;16852;51.446;6.528;2023-07-30T12:18:21;22.20;99.90
27858;DHT22;16852;51.446;6.528;2023-07-30T12:20:22;22.20;99.90
27858;DHT22;16852;51.446;6.528;2023-07-30T12:22:27;22.30;99.90
27858;DHT22;16852;51.446;6.528;2023-07-30T12:24:27;22.40;99.90
27858;DHT22;16852;51.446;6.528;2023-07-30T12:26:28;22.20;99.90
27858;DHT22;16852;51.446;6.528;2023-07-30T12:28:29;22.20;99.90
27858;DHT22;16852;51.446;6.528;2023-07-30T12:30:29;22.20;99.90
27858;DHT22;16852;51.446;6.528;2023-07-30T12:32:30;22.10;99.90
27858;DHT22;16852;51.446;6.528;2023-07-30T12:34:31;22.00;99.90
27858;DHT22;16852;51.446;6.528;2023-07-30T12:36:32;21.90;99.90
27858;DHT22;16852;51.446;6.528;2023-07-30T12:38:32;21.80;99.90
27858;DHT22;16852;51.446;6.528;2023-07-30T12:40:34;21.80;99.90
27858;DHT22;16852;51.446;6.528;2023-07-30T12:42:35;21.80;99.90
27858;DHT22;16852;51.446;6.528;2023-07-30T12:44:36;21.80;99.90
27858;DHT22;16852;51.446;6.528;2023-07-30T12:46:36;21.70;99.90
27858;DHT22;16852;51.446;6.528;2023-07-30T12:48:37;21.70;99.90
27858;DHT22;16852;51.446;6.528;2023-07-30T12:50:38;21.80;99.90
27858;DHT22;16852;51.446;6.528;2023-07-30T12:52:38;21.80;99.90
27858;DHT22;16852;51.446;6.528;2023-07-30T12:54:39;21.90;99.90
27858;DHT22;16852;51.446;6.528;2023-07-30T12:56:39;21.90;99.90
27858;DHT22;16852;51.446;6.528;2023-07-30T12:58:40;22.10;99.90
27858;DHT22;16852;51.446;6.528;2023-07-30T13:00:41;22.10;99.90
27858;DHT22;16852;51.446;6.528;2023-07-30T13:02:42;22.10;99.90
27858;DHT22;16852;51.446;6.528;2023-07-30T13:04:42;22.10;99.90
27858;DHT22;16852;51.446;6.528;2023-07-30T13:06:43;22.10;99.90
27858;DHT22;16852;51.446;6.528;2023-07-30T13:08:43;22.10;99.90
27858;DHT22;16852;51.446;6.528;2023-07-30T13:10:44;22.10;99.90
27858;DHT22;16852;51.446;6.528;2023-07-30T13:12:45;22.10;99.90
27858;DHT22;16852;51.446;6.528;2023-07-30T13:14:45;22.10;99.90
27858;DHT22;16852;51.446;6.528;2023-07-30T13:16:46;22.10;99.90
27858;DHT22;16852;51.446;6.528;2023-07-30T13:18:46;22.00;99.90
27858;DHT22;16852;51.446;6.528;2023-07-30T13:20:47;22.00;99.90
27858;DHT22;16852;51.446;6.528;2023-07-30T13:22:50;21.90;99.90
27858;DHT22;16852;51.446;6.528;2023-07-30T13:24:51;22.00;99.90
27858;DHT22;16852;51.446;6.528;2023-07-30T13:26:52;22.00;99.90
27858;DHT22;16852;51.446;6.528;2023-07-30T13:28:53;22.00;99.90
27858;DHT22;16852;51.446;6.528;2023-07-30T13:30:54;21.90;99.90
27858;DHT22;16852;51.446;6.528;2023-07-30T13:32:54;22.00;99.90
27858;DHT22;16852;51.446;6.528;2023-07-30T13:34:55;22.00;99.90
27858;DHT22;16852;51.446;6.528;2023-07-30T13:36:56;22.00;99.90
27858;DHT22;16852;51.446;6.528;2023-07-30T13:38:56;21.90;99.90
27858;DHT22;16852;51.446;6.528;2023-07-30T13:40:57;21.90;99.90
27858;DHT22;16852;51.446;6.528;2023-07-30T13:42:57;21.80;99.90
27858;DHT22;16852;51.446;6.528;2023-07-30T13:44:58;21.70;99.90
27858;DHT22;16852;51.446;6.528;2023-07-30T13:47:00;21.60;99.90
27858;DHT22;16852;51.446;6.528;2023-07-30T13:49:01;21.60;99.90
27858;DHT22;16852;51.446;6.528;2023-07-30T13:51:01;21.50;99.90
27858;DHT22;16852;51.446;6.528;2023-07-30T13:53:02;21.40;99.90
27858;DHT22;16852;51.446;6.528;2023-07-30T13:55:03;21.30;99.90
27858;DHT22;16852;51.446;6.528;2023-07-30T13:57:04;21.20;99.90
27858;DHT22;16852;51.446;6.528;2023-07-30T13:59:05;21.20;99.90
27858;DHT22;16852;51.446;6.528;2023-07-30T14:01:06;21.20;99.90
27858;DHT22;16852;51.446;6.528;2023-07-30T14:03:09;21.30;99.90
27858;DHT22;16852;51.446;6.528;2023-07-30T14:05:11;21.40;99.90
27858;DHT22;16852;51.446;6.528;2023-07-30T14:07:12;21.40;99.90
27858;DHT22;16852;51.446;6.528;2023-07-30T14:09:12;21.50;99.90
27858;DHT22;16852;51.446;6.528;2023-07-30T14:11:13;21.50;99.90
27858;DHT22;16852;51.446;6.528;2023-07-30T14:13:14;21.60;99.90
27858;DHT22;16852;51.446;6.528;2023-07-30T14:15:15;21.60;99.90
27858;DHT22;16852;51.446;6.528;2023-07-30T14:17:16;21.70;99.90
27858;DHT22;16852;51.446;6.528;2023-07-30T14:19:17;21.70;99.90
27858;DHT22;16852;51.446;6.528;2023-07-30T14:21:17;21.80;99.90
27858;DHT22;16852;51.446;6.528;2023-07-30T14:23:18;21.70;99.90
27858;DHT22;16852;51.446;6.528;2023-07-30T14:25:19;21.70;99.90
27858;DHT22;16852;51.446;6.528;2023-07-30T14:27:20;21.70;99.90
27858;DHT22;16852;51.446;6.528;2023-07-30T14:29:20;21.60;99.90
27858;DHT22;16852;51.446;6.528;2023-07-30T14:31:21;21.60;99.90
27858;DHT22;16852;51.446;6.528;2023-07-30T14:33:22;21.60;99.90
27858;DHT22;16852;51.446;6.528;2023-07-30T14:35:23;21.60;99.90
27858;DHT22;16852;51.446;6.528;2023-07-30T14:37:23;21.60;99.90
27858;DHT22;16852;51.446;6.528;2023-07-30T14:39:24;21.60;99.90
27858;DHT22;16852;51.446;6.528;2023-07-30T14:41:24;21.70;99.90
27858;DHT22;16852;51.446;6.528;2023-07-30T14:43:25;21.70;99.90
27858;DHT22;16852;51.446;6.528;2023-07-30T14:45:26;21.70;99.90
27858;DHT22;16852;51.446;6.528;2023-07-30T14:47:26;21.70;99.90
27858;DHT22;16852;51.446;6.528;2023-07-30T14:49:27;21.70;99.90
27858;DHT22;16852;51.446;6.528;2023-07-30T14:51:28;21.70;99.90
27858;DHT22;16852;51.446;6.528;2023-07-30T14:53:28;21.80;99.90
27858;DHT22;16852;51.446;6.528;2023-07-30T14:55:29;21.70;99.90
27858;DHT22;16852;51.446;6.528;2023-07-30T14:57:30;21.80;99.90
27858;DHT22;16852;51.446;6.528;2023-07-30T14:59:31;21.80;99.90
27858;DHT22;16852;51.446;6.528;2023-07-30T15:01:31;21.80;99.90
27858;DHT22;16852;51.446;6.528;2023-07-30T15:03:32;21.90;99.90
27858;DHT22;16852;51.446;6.528;2023-07-30T15:05:32;22.00;99.90
27858;DHT22;16852;51.446;6.528;2023-07-30T15:07:34;22.10;99.90
27858;DHT22;16852;51.446;6.528;2023-07-30T15:09:34;22.20;99.90
27858;DHT22;16852;51.446;6.528;2023-07-30T15:11:36;22.20;99.90
27858;DHT22;16852;51.446;6.528;2023-07-30T15:13:37;22.30;99.90
27858;DHT22;16852;51.446;6.528;2023-07-30T15:15:38;22.30;99.90
27858;DHT22;16852;51.446;6.528;2023-07-30T15:17:38;22.30;99.90
27858;DHT22;16852;51.446;6.528;2023-07-30T15:19:39;22.30;99.90
27858;DHT22;16852;51.446;6.528;2023-07-30T15:21:40;22.20;99.90
27858;DHT22;16852;51.446;6.528;2023-07-30T15:23:43;22.20;99.90
27858;DHT22;16852;51.446;6.528;2023-07-30T15:25:46;22.20;99.90
27858;DHT22;16852;51.446;6.528;2023-07-30T15:27:47;22.30;99.90
27858;DHT22;16852;51.446;6.528;2023-07-30T15:29:47;22.30;99.90
27858;DHT22;16852;51.446;6.528;2023-07-30T15:31:51;22.30;99.90
27858;DHT22;16852;51.446;6.528;2023-07-30T15:33:51;22.30;99.90
27858;DHT22;16852;51.446;6.528;2023-07-30T15:35:53;22.20;99.90
27858;DHT22;16852;51.446;6.528;2023-07-30T15:37:54;22.30;99.90
27858;DHT22;16852;51.446;6.528;2023-07-30T15:39:54;22.30;99.90
27858;DHT22;16852;51.446;6.528;2023-07-30T15:41:55;22.30;99.90
27858;DHT22;16852;51.446;6.528;2023-07-30T15:43:56;22.30;99.90
27858;DHT22;16852;51.446;6.528;2023-07-30T15:45:56;22.30;99.90
27858;DHT22;16852;51.446;6.528;2023-07-30T15:48:02;22.40;99.90
27858;DHT22;16852;51.446;6.528;2023-07-30T15:50:02;22.40;99.90
27858;DHT22;16852;51.446;6.528;2023-07-30T15:52:03;22.40;99.90
27858;DHT22;16852;51.446;6.528;2023-07-30T15:54:04;22.50;99.90
27858;DHT22;16852;51.446;6.528;2023-07-30T15:56:05;22.50;99.90
27858;DHT22;16852;51.446;6.528;2023-07-30T15:58:07;22.50;99.90
27858;DHT22;16852;51.446;6.528;2023-07-30T16:00:08;22.50;99.90
27858;DHT22;16852;51.446;6.528;2023-07-30T16:02:09;22.60;99.90
27858;DHT22;16852;51.446;6.528;2023-07-30T16:04:09;22.50;99.90
27858;DHT22;16852;51.446;6.528;2023-07-30T16:06:10;22.50;99.90
27858;DHT22;16852;51.446;6.528;2023-07-30T16:08:10;22.60;99.90
27858;DHT22;16852;51.446;6.528;2023-07-30T16:10:11;22.60;99.90
27858;DHT22;16852;51.446;6.528;2023-07-30T16:12:12;22.50;99.90
27858;DHT22;16852;51.446;6.528;2023-07-30T16:14:13;22.50;99.90
27858;DHT22;16852;51.446;6.528;2023-07-30T16:16:16;22.50;99.90
27858;DHT22;16852;51.446;6.528;2023-07-30T16:18:19;22.50;99.90
27858;DHT22;16852;51.446;6.528;2023-07-30T16:20:20;22.50;99.90
27858;DHT22;16852;51.446;6.528;2023-07-30T16:22:21;22.50;99.90
27858;DHT22;16852;51.446;6.528;2023-07-30T16:24:22;22.40;99.90
27858;DHT22;16852;51.446;6.528;2023-07-30T16:26:23;22.40;99.90
27858;DHT22;16852;51.446;6.528;2023-07-30T16:28:24;22.40;99.90
27858;DHT22;16852;51.446;6.528;2023-07-30T16:30:24;22.40;99.90
27858;DHT22;16852;51.446;6.528;2023-07-30T16:32:25;22.40;99.90
27858;DHT22;16852;51.446;6.528;2023-07-30T16:34:26;22.40;99.90
27858;DHT22;16852;51.446;6.528;2023-07-30T16:36:26;22.40;99.90
27858;DHT22;16852;51.446;6.528;2023-07-30T16:38:27;22.40;99.90
27858;DHT22;16852;51.446;6.528;2023-07-30T16:40:30;22.40;99.90
27858;DHT22;16852;51.446;6.528;2023-07-30T16:42:30;22.30;99.90
27858;DHT22;16852;51.446;6.528;2023-07-30T16:44:31;22.40;99.90
27858;DHT22;16852;51.446;6.528;2023-07-30T16:46:32;22.40;99.90
27858;DHT22;16852;51.446;6.528;2023-07-30T16:48:32;22.40;99.90
27858;DHT22;16852;51.446;6.528;2023-07-30T16:50:33;22.40;99.90
27858;DHT22;16852;51.446;6.528;2023-07-30T16:52:34;22.30;99.90
27858;DHT22;16852;51.446;6.528;2023-07-30T16:54:34;22.40;99.90
27858;DHT22;16852;51.446;6.528;2023-07-30T16:56:35;22.40;99.90
27858;DHT22;16852;51.446;6.528;2023-07-30T16:58:36;22.30;99.90
27858;DHT22;16852;51.446;6.528;2023-07-30T17:00:36;22.30;99.90
27858;DHT22;16852;51.446;6.528;2023-07-30T17:02:37;22.30;99.90
27858;DHT22;16852;51.446;6.528;2023-07-30T17:04:37;22.30;99.90
27858;DHT22;16852;51.446;6.528;2023-07-30T17:06:38;22.30;99.90
27858;DHT22;16852;51.446;6.528;2023-07-30T17:08:38;22.30;99.90
27858;DHT22;16852;51.446;6.528;2023-07-30T17:10:39;22.30;99.90
27858;DHT22;16852;51.446;6.528;2023-07-30T17:12:40;22.30;99.90
27858;DHT22;16852;51.446;6.528;2023-07-30T17:14:41;22.30;99.90
27858;DHT22;16852;51.446;6.528;2023-07-30T17:16:41;22.20;99.90
27858;DHT22;16852;51.446;6.528;2023-07-30T17:18:43;22.20;99.90
27858;DHT22;16852;51.446;6.528;2023-07-30T17:20:44;22.10;99.90
27858;DHT22;16852;51.446;6.528;2023-07-30T17:22:54;22.10;99.90
27858;DHT22;16852;51.446;6.528;2023-07-30T17:24:55;22.00;99.90
27858;DHT22;16852;51.446;6.528;2023-07-30T17:26:57;22.00;99.90
27858;DHT22;16852;51.446;6.528;2023-07-30T17:28:58;21.90;99.90
27858;DHT22;16852;51.446;6.528;2023-07-30T17:30:58;21.90;99.90
27858;DHT22;16852;51.446;6.528;2023-07-30T17:32:59;21.90;98.10
27858;DHT22;16852;51.446;6.528;2023-07-30T17:34:59;21.90;99.80
27858;DHT22;16852;51.446;6.528;2023-07-30T17:37:00;21.80;99.80
27858;DHT22;16852;51.446;6.528;2023-07-30T17:39:01;21.70;99.90
27858;DHT22;16852;51.446;6.528;2023-07-30T17:41:02;21.70;99.90
27858;DHT22;16852;51.446;6.528;2023-07-30T17:43:04;21.70;99.90
27858;DHT22;16852;51.446;6.528;2023-07-30T17:45:05;21.60;99.90
27858;DHT22;16852;51.446;6.528;2023-07-30T17:47:06;21.40;99.90
27858;DHT22;16852;51.446;6.528;2023-07-30T17:49:10;21.30;99.90
27858;DHT22;16852;51.446;6.528;2023-07-30T17:51:17;21.20;99.90
27858;DHT22;16852;51.446;6.528;2023-07-30T17:53:18;21.10;99.90
27858;DHT22;16852;51.446;6.528;2023-07-30T17:55:18;21.00;99.90
27858;DHT22;16852;51.446;6.528;2023-07-30T17:57:19;20.90;99.90
27858;DHT22;16852;51.446;6.528;2023-07-30T17:59:20;20.80;99.90
27858;DHT22;16852;51.446;6.528;2023-07-30T18:01:23;20.70;99.90
27858;DHT22;16852;51.446;6.528;2023-07-30T18:03:24;20.50;99.90
27858;DHT22;16852;51.446;6.528;2023-07-30T18:05:24;20.50;99.90
27858;DHT22;16852;51.446;6.528;2023-07-30T18:07:25;20.40;99.90
27858;DHT22;16852;51.446;6.528;2023-07-30T18:09:26;20.20;99.90
27858;DHT22;16852;51.446;6.528;2023-07-30T18:11:26;20.10;99.90
27858;DHT22;16852;51.446;6.528;2023-07-30T18:13:27;20.00;99.90
27858;DHT22;16852;51.446;6.528;2023-07-30T18:15:27;19.90;99.90
27858;DHT22;16852;51.446;6.528;2023-07-30T18:17:28;19.80;99.90
27858;DHT22;16852;51.446;6.528;2023-07-30T18:19:30;19.80;99.90
27858;DHT22;16852;51.446;6.528;2023-07-30T18:21:31;19.80;99.90
27858;DHT22;16852;51.446;6.528;2023-07-30T18:23:31;19.70;99.90
27858;DHT22;16852;51.446;6.528;2023-07-30T18:25:32;19.70;99.90
27858;DHT22;16852;51.446;6.528;2023-07-30T18:27:33;19.60;99.90
27858;DHT22;16852;51.446;6.528;2023-07-30T18:29:33;19.60;99.90
27858;DHT22;16852;51.446;6.528;2023-07-30T18:31:34;19.60;99.90
27858;DHT22;16852;51.446;6.528;2023-07-30T18:33:34;19.50;99.90
27858;DHT22;16852;51.446;6.528;2023-07-30T18:35:35;19.40;99.90
27858;DHT22;16852;51.446;6.528;2023-07-30T18:37:36;19.30;99.90
27858;DHT22;16852;51.446;6.528;2023-07-30T18:39:37;19.30;99.90
27858;DHT22;16852;51.446;6.528;2023-07-30T18:41:37;19.30;99.90
27858;DHT22;16852;51.446;6.528;2023-07-30T18:43:38;19.30;99.90
27858;DHT22;16852;51.446;6.528;2023-07-30T18:45:38;19.30;99.90
27858;DHT22;16852;51.446;6.528;2023-07-30T18:47:39;19.20;99.90
27858;DHT22;16852;51.446;6.528;2023-07-30T18:49:40;19.20;99.90
27858;DHT22;16852;51.446;6.528;2023-07-30T18:51:40;19.10;99.90
27858;DHT22;16852;51.446;6.528;2023-07-30T18:53:41;19.10;99.90
27858;DHT22;16852;51.446;6.528;2023-07-30T18:55:44;19.10;99.90
27858;DHT22;16852;51.446;6.528;2023-07-30T18:57:45;19.00;99.90
27858;DHT22;16852;51.446;6.528;2023-07-30T18:59:45;19.00;99.90
27858;DHT22;16852;51.446;6.528;2023-07-30T19:01:46;18.90;99.90
27858;DHT22;16852;51.446;6.528;2023-07-30T19:03:47;18.80;99.90
27858;DHT22;16852;51.446;6.528;2023-07-30T19:05:52;18.80;99.90
27858;DHT22;16852;51.446;6.528;2023-07-30T19:07:53;18.70;99.90
27858;DHT22;16852;51.446;6.528;2023-07-30T19:09:57;18.70;99.90
27858;DHT22;16852;51.446;6.528;2023-07-30T19:11:58;18.80;99.90
27858;DHT22;16852;51.446;6.528;2023-07-30T19:13:59;18.70;99.90
27858;DHT22;16852;51.446;6.528;2023-07-30T19:16:00;18.60;99.90
27858;DHT22;16852;51.446;6.528;2023-07-30T19:18:00;18.50;99.90
27858;DHT22;16852;51.446;6.528;2023-07-30T19:20:01;18.40;99.90
27858;DHT22;16852;51.446;6.528;2023-07-30T19:22:02;18.50;99.90
27858;DHT22;16852;51.446;6.528;2023-07-30T19:24:02;18.40;99.90
27858;DHT22;16852;51.446;6.528;2023-07-30T19:26:03;18.40;99.90
27858;DHT22;16852;51.446;6.528;2023-07-30T19:28:04;18.30;99.90
27858;DHT22;16852;51.446;6.528;2023-07-30T19:30:07;18.40;99.90
27858;DHT22;16852;51.446;6.528;2023-07-30T19:32:07;18.40;99.90
27858;DHT22;16852;51.446;6.528;2023-07-30T19:34:10;18.30;99.90
27858;DHT22;16852;51.446;6.528;2023-07-30T19:36:11;18.30;99.90
27858;DHT22;16852;51.446;6.528;2023-07-30T19:38:12;18.30;99.90
27858;DHT22;16852;51.446;6.528;2023-07-30T19:40:12;18.20;99.90